sensor_id;sensor_type;location;lat;lon;timestamp;P1;durP1;ratioP1;P2;durP2;ratioP2
14181;SDS011;7171;50.936;6.764;2022-10-22T04:23:58;1.98;;;1.50;;
14181;SDS011;7171;50.936;6.764;2022-10-22T04:26:24;2.15;;;1.90;;
14181;SDS011;7171;50.936;6.764;2022-10-22T04:28:51;2.53;;;1.65;;
14181;SDS011;7171;50.936;6.764;2022-10-22T04:31:19;2.25;;;1.80;;
14181;SDS011;7171;50.936;6.764;2022-10-22T04:33:50;1.90;;;1.73;;
14181;SDS011;7171;50.936;6.764;2022-10-22T04:36:18;1.75;;;1.60;;
14181;SDS011;7171;50.936;6.764;2022-10-22T04:38:46;2.35;;;1.55;;
14181;SDS011;7171;50.936;6.764;2022-10-22T04:41:18;1.65;;;1.50;;
14181;SDS011;7171;50.936;6.764;2022-10-22T04:43:48;2.97;;;1.80;;
14181;SDS011;7171;50.936;6.764;2022-10-22T04:46:15;2.53;;;2.33;;
14181;SDS011;7171;50.936;6.764;2022-10-22T04:48:43;2.25;;;2.00;;
14181;SDS011;7171;50.936;6.764;2022-10-22T04:51:11;2.75;;;1.83;;
14181;SDS011;7171;50.936;6.764;2022-10-22T04:53:39;2.25;;;1.95;;
14181;SDS011;7171;50.936;6.764;2022-10-22T04:56:07;2.83;;;2.22;;
14181;SDS011;7171;50.936;6.764;2022-10-22T04:58:37;3.17;;;1.98;;
14181;SDS011;7171;50.936;6.764;2022-10-22T05:01:10;2.10;;;1.77;;
14181;SDS011;7171;50.936;6.764;2022-10-22T05:03:38;2.35;;;1.60;;
14181;SDS011;7171;50.936;6.764;2022-10-22T05:06:05;2.22;;;2.03;;
14181;SDS011;7171;50.936;6.764;2022-10-22T05:08:33;2.20;;;1.85;;
14181;SDS011;7171;50.936;6.764;2022-10-22T05:11:00;1.67;;;1.50;;
14181;SDS011;7171;50.936;6.764;2022-10-22T05:13:34;2.08;;;1.80;;
14181;SDS011;7171;50.936;6.764;2022-10-22T05:16:02;2.33;;;1.77;;
14181;SDS011;7171;50.936;6.764;2022-10-22T05:18:30;2.08;;;1.70;;
14181;SDS011;7171;50.936;6.764;2022-10-22T05:20:59;1.88;;;1.73;;
14181;SDS011;7171;50.936;6.764;2022-10-22T05:23:26;4.78;;;1.77;;
14181;SDS011;7171;50.936;6.764;2022-10-22T05:25:53;2.25;;;2.03;;
14181;SDS011;7171;50.936;6.764;2022-10-22T05:28:19;1.67;;;1.58;;
14181;SDS011;7171;50.936;6.764;2022-10-22T05:30:53;1.98;;;1.70;;
14181;SDS011;7171;50.936;6.764;2022-10-22T05:33:20;1.83;;;1.73;;
14181;SDS011;7171;50.936;6.764;2022-10-22T05:35:47;1.80;;;1.60;;
14181;SDS011;7171;50.936;6.764;2022-10-22T05:38:14;2.45;;;1.80;;
14181;SDS011;7171;50.936;6.764;2022-10-22T05:40:40;2.75;;;1.40;;
14181;SDS011;7171;50.936;6.764;2022-10-22T05:43:07;1.63;;;1.52;;
14181;SDS011;7171;50.936;6.764;2022-10-22T05:45:35;1.77;;;1.65;;
14181;SDS011;7171;50.936;6.764;2022-10-22T05:48:03;3.22;;;1.67;;
14181;SDS011;7171;50.936;6.764;2022-10-22T05:50:30;1.73;;;1.35;;
14181;SDS011;7171;50.936;6.764;2022-10-22T05:52:57;2.97;;;1.80;;
14181;SDS011;7171;50.936;6.764;2022-10-22T05:55:24;1.98;;;1.60;;
14181;SDS011;7171;50.936;6.764;2022-10-22T05:57:50;2.15;;;1.63;;
14181;SDS011;7171;50.936;6.764;2022-10-22T06:00:17;2.00;;;1.85;;
14181;SDS011;7171;50.936;6.764;2022-10-22T06:02:47;3.90;;;1.60;;
14181;SDS011;7171;50.936;6.764;2022-10-22T06:05:16;1.60;;;1.50;;
14181;SDS011;7171;50.936;6.764;2022-10-22T06:07:42;1.52;;;1.40;;
14181;SDS011;7171;50.936;6.764;2022-10-22T06:10:10;1.52;;;1.35;;
14181;SDS011;7171;50.936;6.764;2022-10-22T06:12:40;1.30;;;1.20;;
14181;SDS011;7171;50.936;6.764;2022-10-22T06:15:08;1.55;;;1.45;;
14181;SDS011;7171;50.936;6.764;2022-10-22T06:17:35;1.60;;;1.45;;
14181;SDS011;7171;50.936;6.764;2022-10-22T06:20:02;1.63;;;1.52;;
14181;SDS011;7171;50.936;6.764;2022-10-22T06:22:31;2.22;;;1.65;;
14181;SDS011;7171;50.936;6.764;2022-10-22T06:24:58;1.40;;;1.30;;
14181;SDS011;7171;50.936;6.764;2022-10-22T06:27:25;2.08;;;1.60;;
14181;SDS011;7171;50.936;6.764;2022-10-22T06:29:51;2.10;;;1.40;;
14181;SDS011;7171;50.936;6.764;2022-10-22T06:32:18;3.15;;;2.45;;
14181;SDS011;7171;50.936;6.764;2022-10-22T06:34:45;1.85;;;1.65;;
14181;SDS011;7171;50.936;6.764;2022-10-22T06:37:12;1.65;;;1.30;;
14181;SDS011;7171;50.936;6.764;2022-10-22T06:39:40;1.63;;;1.52;;
14181;SDS011;7171;50.936;6.764;2022-10-22T06:42:07;2.10;;;1.60;;
14181;SDS011;7171;50.936;6.764;2022-10-22T06:44:34;1.60;;;1.50;;
14181;SDS011;7171;50.936;6.764;2022-10-22T06:47:00;1.88;;;1.70;;
14181;SDS011;7171;50.936;6.764;2022-10-22T06:49:27;2.08;;;1.83;;
14181;SDS011;7171;50.936;6.764;2022-10-22T06:51:54;1.80;;;1.40;;
14181;SDS011;7171;50.936;6.764;2022-10-22T06:54:20;2.05;;;1.50;;
14181;SDS011;7171;50.936;6.764;2022-10-22T06:56:49;1.40;;;1.30;;
14181;SDS011;7171;50.936;6.764;2022-10-22T06:59:15;1.30;;;1.20;;
14181;SDS011;7171;50.936;6.764;2022-10-22T07:01:42;1.70;;;1.35;;
14181;SDS011;7171;50.936;6.764;2022-10-22T07:04:09;1.70;;;1.60;;
14181;SDS011;7171;50.936;6.764;2022-10-22T07:06:36;1.55;;;1.42;;
14181;SDS011;7171;50.936;6.764;2022-10-22T07:09:02;1.30;;;1.20;;
14181;SDS011;7171;50.936;6.764;2022-10-22T07:11:30;2.50;;;1.50;;
14181;SDS011;7171;50.936;6.764;2022-10-22T07:14:04;2.30;;;1.38;;
14181;SDS011;7171;50.936;6.764;2022-10-22T07:16:30;1.48;;;1.38;;
14181;SDS011;7171;50.936;6.764;2022-10-22T07:18:57;2.00;;;1.50;;
14181;SDS011;7171;50.936;6.764;2022-10-22T07:21:24;1.60;;;1.50;;
14181;SDS011;7171;50.936;6.764;2022-10-22T07:23:50;1.15;;;1.08;;
14181;SDS011;7171;50.936;6.764;2022-10-22T07:26:17;1.80;;;1.25;;
14181;SDS011;7171;50.936;6.764;2022-10-22T07:28:45;2.33;;;1.58;;
14181;SDS011;7171;50.936;6.764;2022-10-22T07:31:14;2.22;;;1.83;;
14181;SDS011;7171;50.936;6.764;2022-10-22T07:33:41;1.70;;;1.23;;
14181;SDS011;7171;50.936;6.764;2022-10-22T07:36:09;1.00;;;0.93;;
14181;SDS011;7171;50.936;6.764;2022-10-22T07:38:41;1.00;;;1.00;;
14181;SDS011;7171;50.936;6.764;2022-10-22T07:41:08;1.35;;;1.25;;
14181;SDS011;7171;50.936;6.764;2022-10-22T07:43:36;1.90;;;1.30;;
14181;SDS011;7171;50.936;6.764;2022-10-22T07:46:02;1.95;;;1.17;;
14181;SDS011;7171;50.936;6.764;2022-10-22T07:48:30;2.78;;;1.23;;
14181;SDS011;7171;50.936;6.764;2022-10-22T07:50:57;1.20;;;1.10;;
14181;SDS011;7171;50.936;6.764;2022-10-22T07:53:24;1.42;;;1.30;;
14181;SDS011;7171;50.936;6.764;2022-10-22T07:55:50;1.52;;;1.40;;
14181;SDS011;7171;50.936;6.764;2022-10-22T07:58:18;2.63;;;1.20;;
14181;SDS011;7171;50.936;6.764;2022-10-22T08:00:46;1.52;;;1.17;;
14181;SDS011;7171;50.936;6.764;2022-10-22T08:03:14;1.10;;;1.00;;
14181;SDS011;7171;50.936;6.764;2022-10-22T08:05:42;1.45;;;1.15;;
14181;SDS011;7171;50.936;6.764;2022-10-22T08:08:10;1.17;;;1.08;;
14181;SDS011;7171;50.936;6.764;2022-10-22T08:10:37;1.42;;;1.20;;
14181;SDS011;7171;50.936;6.764;2022-10-22T08:13:04;0.90;;;0.90;;
14181;SDS011;7171;50.936;6.764;2022-10-22T08:15:31;3.90;;;1.30;;
14181;SDS011;7171;50.936;6.764;2022-10-22T08:17:58;1.45;;;0.98;;
14181;SDS011;7171;50.936;6.764;2022-10-22T08:20:25;3.53;;;1.30;;
14181;SDS011;7171;50.936;6.764;2022-10-22T08:22:53;3.47;;;1.17;;
14181;SDS011;7171;50.936;6.764;2022-10-22T08:25:19;1.40;;;1.30;;
14181;SDS011;7171;50.936;6.764;2022-10-22T08:27:46;1.77;;;1.02;;
14181;SDS011;7171;50.936;6.764;2022-10-22T08:30:13;1.88;;;1.10;;
14181;SDS011;7171;50.936;6.764;2022-10-22T08:32:40;3.67;;;1.30;;
14181;SDS011;7171;50.936;6.764;2022-10-22T08:35:07;1.42;;;1.33;;
14181;SDS011;7171;50.936;6.764;2022-10-22T08:37:34;2.55;;;1.25;;
14181;SDS011;7171;50.936;6.764;2022-10-22T08:40:03;2.58;;;0.80;;
14181;SDS011;7171;50.936;6.764;2022-10-22T08:42:41;1.70;;;1.48;;
14181;SDS011;7171;50.936;6.764;2022-10-22T08:45:24;1.00;;;1.00;;
14181;SDS011;7171;50.936;6.764;2022-10-22T08:47:59;2.22;;;1.02;;
14181;SDS011;7171;50.936;6.764;2022-10-22T08:50:34;4.07;;;3.72;;
14181;SDS011;7171;50.936;6.764;2022-10-22T08:53:04;1.90;;;1.40;;
14181;SDS011;7171;50.936;6.764;2022-10-22T08:55:38;2.45;;;1.13;;
14181;SDS011;7171;50.936;6.764;2022-10-22T08:58:07;1.05;;;1.00;;
14181;SDS011;7171;50.936;6.764;2022-10-22T09:00:43;1.20;;;1.10;;
14181;SDS011;7171;50.936;6.764;2022-10-22T09:03:22;0.77;;;0.77;;
14181;SDS011;7171;50.936;6.764;2022-10-22T09:06:02;1.20;;;1.10;;
14181;SDS011;7171;50.936;6.764;2022-10-22T09:08:34;1.05;;;0.88;;
14181;SDS011;7171;50.936;6.764;2022-10-22T09:11:04;0.70;;;0.70;;
14181;SDS011;7171;50.936;6.764;2022-10-22T09:13:39;1.30;;;0.82;;
14181;SDS011;7171;50.936;6.764;2022-10-22T09:16:11;2.35;;;0.95;;
14181;SDS011;7171;50.936;6.764;2022-10-22T09:18:42;2.30;;;0.90;;
14181;SDS011;7171;50.936;6.764;2022-10-22T09:21:18;1.92;;;0.80;;
14181;SDS011;7171;50.936;6.764;2022-10-22T09:23:55;0.80;;;0.80;;
14181;SDS011;7171;50.936;6.764;2022-10-22T09:26:30;2.08;;;0.90;;
14181;SDS011;7171;50.936;6.764;2022-10-22T09:28:59;0.82;;;0.82;;
14181;SDS011;7171;50.936;6.764;2022-10-22T09:31:27;1.63;;;1.00;;
14181;SDS011;7171;50.936;6.764;2022-10-22T09:33:56;1.00;;;0.90;;
14181;SDS011;7171;50.936;6.764;2022-10-22T09:36:23;1.00;;;0.80;;
14181;SDS011;7171;50.936;6.764;2022-10-22T09:38:53;0.73;;;0.70;;
14181;SDS011;7171;50.936;6.764;2022-10-22T09:41:22;1.10;;;0.82;;
14181;SDS011;7171;50.936;6.764;2022-10-22T09:43:51;1.05;;;0.90;;
14181;SDS011;7171;50.936;6.764;2022-10-22T09:46:19;1.27;;;0.80;;
14181;SDS011;7171;50.936;6.764;2022-10-22T09:48:47;0.77;;;0.77;;
14181;SDS011;7171;50.936;6.764;2022-10-22T09:51:18;1.15;;;1.05;;
14181;SDS011;7171;50.936;6.764;2022-10-22T09:53:49;0.70;;;0.70;;
14181;SDS011;7171;50.936;6.764;2022-10-22T09:56:24;2.20;;;1.27;;
14181;SDS011;7171;50.936;6.764;2022-10-22T09:58:54;1.15;;;0.77;;
14181;SDS011;7171;50.936;6.764;2022-10-22T10:01:23;1.17;;;0.90;;
14181;SDS011;7171;50.936;6.764;2022-10-22T10:03:52;1.40;;;0.85;;
14181;SDS011;7171;50.936;6.764;2022-10-22T10:06:19;0.80;;;0.80;;
14181;SDS011;7171;50.936;6.764;2022-10-22T10:08:47;1.20;;;1.10;;
14181;SDS011;7171;50.936;6.764;2022-10-22T10:11:16;0.75;;;0.70;;
14181;SDS011;7171;50.936;6.764;2022-10-22T10:13:55;0.80;;;0.80;;
14181;SDS011;7171;50.936;6.764;2022-10-22T10:16:39;0.60;;;0.60;;
14181;SDS011;7171;50.936;6.764;2022-10-22T10:19:18;0.77;;;0.77;;
14181;SDS011;7171;50.936;6.764;2022-10-22T10:21:54;1.58;;;0.90;;
14181;SDS011;7171;50.936;6.764;2022-10-22T10:24:31;0.77;;;0.75;;
14181;SDS011;7171;50.936;6.764;2022-10-22T10:27:06;0.60;;;0.60;;
14181;SDS011;7171;50.936;6.764;2022-10-22T10:29:43;0.60;;;0.60;;
14181;SDS011;7171;50.936;6.764;2022-10-22T10:32:22;0.90;;;0.70;;
14181;SDS011;7171;50.936;6.764;2022-10-22T10:35:19;1.95;;;0.68;;
14181;SDS011;7171;50.936;6.764;2022-10-22T10:37:52;1.27;;;0.90;;
14181;SDS011;7171;50.936;6.764;2022-10-22T10:40:28;0.60;;;0.60;;
14181;SDS011;7171;50.936;6.764;2022-10-22T10:43:05;0.85;;;0.85;;
14181;SDS011;7171;50.936;6.764;2022-10-22T10:45:39;1.08;;;0.70;;
14181;SDS011;7171;50.936;6.764;2022-10-22T10:48:15;0.82;;;0.60;;
14181;SDS011;7171;50.936;6.764;2022-10-22T10:50:53;0.75;;;0.75;;
14181;SDS011;7171;50.936;6.764;2022-10-22T10:53:32;0.45;;;0.45;;
14181;SDS011;7171;50.936;6.764;2022-10-22T10:56:12;1.65;;;1.05;;
14181;SDS011;7171;50.936;6.764;2022-10-22T10:58:53;0.60;;;0.60;;
14181;SDS011;7171;50.936;6.764;2022-10-22T11:01:28;0.55;;;0.55;;
14181;SDS011;7171;50.936;6.764;2022-10-22T11:04:10;0.50;;;0.50;;
14181;SDS011;7171;50.936;6.764;2022-10-22T11:06:48;0.65;;;0.63;;
14181;SDS011;7171;50.936;6.764;2022-10-22T11:09:20;1.17;;;0.50;;
14181;SDS011;7171;50.936;6.764;2022-10-22T11:11:50;0.60;;;0.60;;
14181;SDS011;7171;50.936;6.764;2022-10-22T11:14:22;0.68;;;0.68;;
14181;SDS011;7171;50.936;6.764;2022-10-22T11:16:55;0.93;;;0.68;;
14181;SDS011;7171;50.936;6.764;2022-10-22T11:19:28;0.52;;;0.52;;
14181;SDS011;7171;50.936;6.764;2022-10-22T11:22:00;0.63;;;0.63;;
14181;SDS011;7171;50.936;6.764;2022-10-22T11:24:31;0.80;;;0.63;;
14181;SDS011;7171;50.936;6.764;2022-10-22T11:27:03;0.50;;;0.50;;
14181;SDS011;7171;50.936;6.764;2022-10-22T11:29:38;1.05;;;0.52;;
14181;SDS011;7171;50.936;6.764;2022-10-22T11:32:11;0.70;;;0.70;;
14181;SDS011;7171;50.936;6.764;2022-10-22T11:34:43;0.63;;;0.63;;
14181;SDS011;7171;50.936;6.764;2022-10-22T11:37:13;0.60;;;0.60;;
14181;SDS011;7171;50.936;6.764;2022-10-22T11:39:42;0.65;;;0.65;;
14181;SDS011;7171;50.936;6.764;2022-10-22T11:42:16;0.55;;;0.50;;
14181;SDS011;7171;50.936;6.764;2022-10-22T11:44:46;2.05;;;0.68;;
14181;SDS011;7171;50.936;6.764;2022-10-22T11:47:25;1.15;;;0.90;;
14181;SDS011;7171;50.936;6.764;2022-10-22T11:49:55;1.25;;;0.80;;
14181;SDS011;7171;50.936;6.764;2022-10-22T11:52:24;0.80;;;0.80;;
14181;SDS011;7171;50.936;6.764;2022-10-22T11:54:53;1.20;;;0.90;;
14181;SDS011;7171;50.936;6.764;2022-10-22T11:57:25;0.50;;;0.50;;
14181;SDS011;7171;50.936;6.764;2022-10-22T11:59:55;0.70;;;0.70;;
14181;SDS011;7171;50.936;6.764;2022-10-22T12:02:30;0.43;;;0.43;;
14181;SDS011;7171;50.936;6.764;2022-10-22T12:08:19;0.60;;;0.60;;
14181;SDS011;7171;50.936;6.764;2022-10-22T12:10:59;0.60;;;0.60;;
14181;SDS011;7171;50.936;6.764;2022-10-22T12:13:31;0.90;;;0.80;;
14181;SDS011;7171;50.936;6.764;2022-10-22T12:16:00;0.50;;;0.50;;
14181;SDS011;7171;50.936;6.764;2022-10-22T12:18:32;0.70;;;0.70;;
14181;SDS011;7171;50.936;6.764;2022-10-22T12:21:03;1.48;;;0.80;;
14181;SDS011;7171;50.936;6.764;2022-10-22T12:23:31;0.52;;;0.52;;
14181;SDS011;7171;50.936;6.764;2022-10-22T12:26:01;1.05;;;0.63;;
14181;SDS011;7171;50.936;6.764;2022-10-22T12:28:29;0.70;;;0.70;;
14181;SDS011;7171;50.936;6.764;2022-10-22T12:31:03;1.95;;;0.88;;
14181;SDS011;7171;50.936;6.764;2022-10-22T12:33:32;0.50;;;0.50;;
14181;SDS011;7171;50.936;6.764;2022-10-22T12:35:58;0.60;;;0.60;;
14181;SDS011;7171;50.936;6.764;2022-10-22T12:38:28;1.58;;;0.65;;
14181;SDS011;7171;50.936;6.764;2022-10-22T12:40:55;1.95;;;0.90;;
14181;SDS011;7171;50.936;6.764;2022-10-22T12:43:23;0.70;;;0.70;;
14181;SDS011;7171;50.936;6.764;2022-10-22T12:45:51;0.52;;;0.40;;
14181;SDS011;7171;50.936;6.764;2022-10-22T12:48:20;1.60;;;0.90;;
14181;SDS011;7171;50.936;6.764;2022-10-22T12:50:50;0.60;;;0.60;;
14181;SDS011;7171;50.936;6.764;2022-10-22T12:53:20;1.30;;;0.68;;
14181;SDS011;7171;50.936;6.764;2022-10-22T12:55:50;0.50;;;0.50;;
14181;SDS011;7171;50.936;6.764;2022-10-22T12:58:19;0.65;;;0.65;;
14181;SDS011;7171;50.936;6.764;2022-10-22T13:00:47;3.33;;;1.35;;
14181;SDS011;7171;50.936;6.764;2022-10-22T13:03:25;1.02;;;0.77;;
14181;SDS011;7171;50.936;6.764;2022-10-22T13:05:55;1.10;;;0.85;;
14181;SDS011;7171;50.936;6.764;2022-10-22T13:08:22;0.80;;;0.70;;
14181;SDS011;7171;50.936;6.764;2022-10-22T13:10:52;0.50;;;0.47;;
14181;SDS011;7171;50.936;6.764;2022-10-22T13:13:30;0.70;;;0.70;;
14181;SDS011;7171;50.936;6.764;2022-10-22T13:16:11;0.98;;;0.82;;
14181;SDS011;7171;50.936;6.764;2022-10-22T13:18:43;0.50;;;0.50;;
14181;SDS011;7171;50.936;6.764;2022-10-22T13:21:21;0.52;;;0.52;;
14181;SDS011;7171;50.936;6.764;2022-10-22T13:23:52;0.60;;;0.60;;
14181;SDS011;7171;50.936;6.764;2022-10-22T13:26:20;2.42;;;0.70;;
14181;SDS011;7171;50.936;6.764;2022-10-22T13:28:50;1.02;;;0.70;;
14181;SDS011;7171;50.936;6.764;2022-10-22T13:31:19;0.98;;;0.70;;
14181;SDS011;7171;50.936;6.764;2022-10-22T13:33:50;0.50;;;0.50;;
14181;SDS011;7171;50.936;6.764;2022-10-22T13:36:21;0.88;;;0.88;;
14181;SDS011;7171;50.936;6.764;2022-10-22T13:38:48;1.13;;;0.70;;
14181;SDS011;7171;50.936;6.764;2022-10-22T13:41:19;0.50;;;0.50;;
14181;SDS011;7171;50.936;6.764;2022-10-22T13:43:47;0.60;;;0.60;;
14181;SDS011;7171;50.936;6.764;2022-10-22T13:46:14;1.15;;;0.70;;
14181;SDS011;7171;50.936;6.764;2022-10-22T13:48:41;0.70;;;0.70;;
14181;SDS011;7171;50.936;6.764;2022-10-22T13:51:10;1.35;;;0.77;;
14181;SDS011;7171;50.936;6.764;2022-10-22T13:53:42;0.60;;;0.60;;
14181;SDS011;7171;50.936;6.764;2022-10-22T13:56:11;0.60;;;0.60;;
14181;SDS011;7171;50.936;6.764;2022-10-22T13:58:40;0.57;;;0.52;;
14181;SDS011;7171;50.936;6.764;2022-10-22T14:01:09;1.38;;;1.00;;
14181;SDS011;7171;50.936;6.764;2022-10-22T14:03:41;0.82;;;0.70;;
14181;SDS011;7171;50.936;6.764;2022-10-22T14:06:09;0.82;;;0.82;;
14181;SDS011;7171;50.936;6.764;2022-10-22T14:08:38;1.23;;;0.70;;
14181;SDS011;7171;50.936;6.764;2022-10-22T14:11:08;0.73;;;0.60;;
14181;SDS011;7171;50.936;6.764;2022-10-22T14:13:36;0.70;;;0.70;;
14181;SDS011;7171;50.936;6.764;2022-10-22T14:16:03;3.30;;;0.68;;
14181;SDS011;7171;50.936;6.764;2022-10-22T14:18:31;0.60;;;0.60;;
14181;SDS011;7171;50.936;6.764;2022-10-22T14:20:59;0.70;;;0.70;;
14181;SDS011;7171;50.936;6.764;2022-10-22T14:23:29;0.65;;;0.65;;
14181;SDS011;7171;50.936;6.764;2022-10-22T14:25:57;0.70;;;0.70;;
14181;SDS011;7171;50.936;6.764;2022-10-22T14:28:26;1.95;;;0.60;;
14181;SDS011;7171;50.936;6.764;2022-10-22T14:30:53;2.08;;;0.85;;
14181;SDS011;7171;50.936;6.764;2022-10-22T14:33:21;0.45;;;0.45;;
14181;SDS011;7171;50.936;6.764;2022-10-22T14:35:50;0.55;;;0.50;;
14181;SDS011;7171;50.936;6.764;2022-10-22T14:38:17;0.95;;;0.82;;
14181;SDS011;7171;50.936;6.764;2022-10-22T14:40:44;0.70;;;0.70;;
14181;SDS011;7171;50.936;6.764;2022-10-22T14:43:11;0.98;;;0.80;;
14181;SDS011;7171;50.936;6.764;2022-10-22T14:45:42;0.82;;;0.60;;
14181;SDS011;7171;50.936;6.764;2022-10-22T14:48:09;1.25;;;0.68;;
14181;SDS011;7171;50.936;6.764;2022-10-22T14:50:36;0.82;;;0.70;;
14181;SDS011;7171;50.936;6.764;2022-10-22T14:53:02;0.50;;;0.50;;
14181;SDS011;7171;50.936;6.764;2022-10-22T14:55:29;1.60;;;0.60;;
14181;SDS011;7171;50.936;6.764;2022-10-22T14:57:56;0.88;;;0.70;;
14181;SDS011;7171;50.936;6.764;2022-10-22T15:00:23;1.25;;;0.85;;
14181;SDS011;7171;50.936;6.764;2022-10-22T15:02:51;1.33;;;0.80;;
14181;SDS011;7171;50.936;6.764;2022-10-22T15:05:20;0.70;;;0.70;;
14181;SDS011;7171;50.936;6.764;2022-10-22T15:07:46;0.50;;;0.50;;
14181;SDS011;7171;50.936;6.764;2022-10-22T15:10:13;1.10;;;1.00;;
14181;SDS011;7171;50.936;6.764;2022-10-22T15:12:40;1.25;;;0.65;;
14181;SDS011;7171;50.936;6.764;2022-10-22T15:15:07;1.90;;;0.60;;
14181;SDS011;7171;50.936;6.764;2022-10-22T15:17:34;0.60;;;0.60;;
14181;SDS011;7171;50.936;6.764;2022-10-22T15:20:02;1.17;;;0.75;;
14181;SDS011;7171;50.936;6.764;2022-10-22T15:22:30;1.48;;;0.70;;
14181;SDS011;7171;50.936;6.764;2022-10-22T15:24:59;0.65;;;0.65;;
14181;SDS011;7171;50.936;6.764;2022-10-22T15:27:26;0.73;;;0.65;;
14181;SDS011;7171;50.936;6.764;2022-10-22T15:29:52;0.80;;;0.80;;
14181;SDS011;7171;50.936;6.764;2022-10-22T15:32:21;0.90;;;0.85;;
14181;SDS011;7171;50.936;6.764;2022-10-22T15:34:47;2.00;;;1.00;;
14181;SDS011;7171;50.936;6.764;2022-10-22T15:37:18;1.13;;;0.90;;
14181;SDS011;7171;50.936;6.764;2022-10-22T15:39:45;0.65;;;0.65;;
14181;SDS011;7171;50.936;6.764;2022-10-22T15:42:12;0.88;;;0.88;;
14181;SDS011;7171;50.936;6.764;2022-10-22T15:44:39;0.80;;;0.80;;
14181;SDS011;7171;50.936;6.764;2022-10-22T15:47:06;1.10;;;0.93;;
14181;SDS011;7171;50.936;6.764;2022-10-22T15:49:34;1.20;;;1.10;;
14181;SDS011;7171;50.936;6.764;2022-10-22T15:52:02;1.42;;;0.93;;
14181;SDS011;7171;50.936;6.764;2022-10-22T15:54:30;1.20;;;1.08;;
14181;SDS011;7171;50.936;6.764;2022-10-22T15:56:58;1.35;;;0.90;;
14181;SDS011;7171;50.936;6.764;2022-10-22T15:59:27;0.90;;;0.90;;
14181;SDS011;7171;50.936;6.764;2022-10-22T16:01:54;1.08;;;0.95;;
14181;SDS011;7171;50.936;6.764;2022-10-22T16:04:21;1.65;;;0.93;;
14181;SDS011;7171;50.936;6.764;2022-10-22T16:06:48;1.70;;;1.00;;
14181;SDS011;7171;50.936;6.764;2022-10-22T16:09:17;1.02;;;0.90;;
14181;SDS011;7171;50.936;6.764;2022-10-22T16:11:47;0.75;;;0.75;;
14181;SDS011;7171;50.936;6.764;2022-10-22T16:14:15;1.05;;;0.80;;
14181;SDS011;7171;50.936;6.764;2022-10-22T16:16:45;0.80;;;0.80;;
14181;SDS011;7171;50.936;6.764;2022-10-22T16:19:14;0.77;;;0.77;;
14181;SDS011;7171;50.936;6.764;2022-10-22T16:21:42;1.63;;;1.05;;
14181;SDS011;7171;50.936;6.764;2022-10-22T16:24:08;1.27;;;0.90;;
14181;SDS011;7171;50.936;6.764;2022-10-22T16:26:37;0.95;;;0.90;;
14181;SDS011;7171;50.936;6.764;2022-10-22T16:29:05;0.93;;;0.88;;
14181;SDS011;7171;50.936;6.764;2022-10-22T16:31:32;9.48;;;1.27;;
14181;SDS011;7171;50.936;6.764;2022-10-22T16:33:59;1.95;;;1.10;;
14181;SDS011;7171;50.936;6.764;2022-10-22T16:36:26;1.20;;;0.93;;
14181;SDS011;7171;50.936;6.764;2022-10-22T16:38:55;1.15;;;1.02;;
14181;SDS011;7171;50.936;6.764;2022-10-22T16:41:23;1.50;;;1.00;;
14181;SDS011;7171;50.936;6.764;2022-10-22T16:43:57;1.30;;;0.90;;
14181;SDS011;7171;50.936;6.764;2022-10-22T16:46:27;1.00;;;0.90;;
14181;SDS011;7171;50.936;6.764;2022-10-22T16:48:55;0.90;;;0.90;;
14181;SDS011;7171;50.936;6.764;2022-10-22T16:51:22;1.27;;;0.98;;
14181;SDS011;7171;50.936;6.764;2022-10-22T16:53:51;1.95;;;1.20;;
14181;SDS011;7171;50.936;6.764;2022-10-22T16:56:18;1.83;;;1.02;;
14181;SDS011;7171;50.936;6.764;2022-10-22T16:58:46;1.27;;;0.90;;
14181;SDS011;7171;50.936;6.764;2022-10-22T17:01:18;0.73;;;0.70;;
14181;SDS011;7171;50.936;6.764;2022-10-22T17:03:47;0.80;;;0.80;;
14181;SDS011;7171;50.936;6.764;2022-10-22T17:06:14;0.93;;;0.93;;
14181;SDS011;7171;50.936;6.764;2022-10-22T17:08:41;0.75;;;0.75;;
14181;SDS011;7171;50.936;6.764;2022-10-22T17:11:08;0.75;;;0.75;;
14181;SDS011;7171;50.936;6.764;2022-10-22T17:13:36;1.05;;;0.95;;
14181;SDS011;7171;50.936;6.764;2022-10-22T17:16:05;0.73;;;0.73;;
14181;SDS011;7171;50.936;6.764;2022-10-22T17:18:36;1.42;;;0.80;;
14181;SDS011;7171;50.936;6.764;2022-10-22T17:21:06;3.22;;;0.98;;
14181;SDS011;7171;50.936;6.764;2022-10-22T17:23:33;0.82;;;0.82;;
14181;SDS011;7171;50.936;6.764;2022-10-22T17:26:01;0.90;;;0.90;;
14181;SDS011;7171;50.936;6.764;2022-10-22T17:28:30;1.02;;;0.80;;
14181;SDS011;7171;50.936;6.764;2022-10-22T17:31:01;2.65;;;1.10;;
14181;SDS011;7171;50.936;6.764;2022-10-22T17:33:29;2.58;;;1.10;;
14181;SDS011;7171;50.936;6.764;2022-10-22T17:35:56;1.05;;;0.95;;
14181;SDS011;7171;50.936;6.764;2022-10-22T17:38:24;2.75;;;1.27;;
14181;SDS011;7171;50.936;6.764;2022-10-22T17:40:52;0.80;;;0.80;;
14181;SDS011;7171;50.936;6.764;2022-10-22T17:43:19;0.90;;;0.90;;
14181;SDS011;7171;50.936;6.764;2022-10-22T17:45:45;0.85;;;0.80;;
14181;SDS011;7171;50.936;6.764;2022-10-22T17:48:12;1.33;;;1.17;;
14181;SDS011;7171;50.936;6.764;2022-10-22T17:50:39;0.88;;;0.88;;
14181;SDS011;7171;50.936;6.764;2022-10-22T17:53:06;1.45;;;1.10;;
14181;SDS011;7171;50.936;6.764;2022-10-22T17:55:35;1.02;;;0.98;;
14181;SDS011;7171;50.936;6.764;2022-10-22T17:58:02;2.15;;;0.98;;
14181;SDS011;7171;50.936;6.764;2022-10-22T18:00:28;1.17;;;0.98;;
14181;SDS011;7171;50.936;6.764;2022-10-22T18:02:57;1.75;;;1.05;;
14181;SDS011;7171;50.936;6.764;2022-10-22T18:05:24;1.67;;;1.15;;
14181;SDS011;7171;50.936;6.764;2022-10-22T18:07:52;1.23;;;1.10;;
14181;SDS011;7171;50.936;6.764;2022-10-22T18:10:19;1.10;;;1.10;;
14181;SDS011;7171;50.936;6.764;2022-10-22T18:12:48;1.10;;;1.00;;
14181;SDS011;7171;50.936;6.764;2022-10-22T18:15:14;0.70;;;0.70;;
14181;SDS011;7171;50.936;6.764;2022-10-22T18:17:41;3.38;;;0.95;;
14181;SDS011;7171;50.936;6.764;2022-10-22T18:20:08;1.60;;;0.95;;
14181;SDS011;7171;50.936;6.764;2022-10-22T18:22:36;1.33;;;0.93;;
14181;SDS011;7171;50.936;6.764;2022-10-22T18:25:05;2.33;;;0.90;;
14181;SDS011;7171;50.936;6.764;2022-10-22T18:27:32;1.02;;;1.00;;
14181;SDS011;7171;50.936;6.764;2022-10-22T18:30:00;0.80;;;0.80;;
14181;SDS011;7171;50.936;6.764;2022-10-22T18:32:27;2.67;;;1.10;;
14181;SDS011;7171;50.936;6.764;2022-10-22T18:34:55;0.80;;;0.80;;
14181;SDS011;7171;50.936;6.764;2022-10-22T18:37:21;1.00;;;1.00;;
14181;SDS011;7171;50.936;6.764;2022-10-22T18:39:48;1.02;;;0.93;;
14181;SDS011;7171;50.936;6.764;2022-10-22T18:42:15;1.45;;;1.20;;
14181;SDS011;7171;50.936;6.764;2022-10-22T18:44:42;0.90;;;0.90;;
14181;SDS011;7171;50.936;6.764;2022-10-22T18:47:10;1.92;;;1.38;;
14181;SDS011;7171;50.936;6.764;2022-10-22T18:49:36;2.97;;;1.25;;
14181;SDS011;7171;50.936;6.764;2022-10-22T18:52:03;1.15;;;1.05;;
14181;SDS011;7171;50.936;6.764;2022-10-22T18:54:30;1.85;;;1.05;;
14181;SDS011;7171;50.936;6.764;2022-10-22T18:56:57;1.58;;;1.10;;
14181;SDS011;7171;50.936;6.764;2022-10-22T18:59:24;1.35;;;1.25;;
14181;SDS011;7171;50.936;6.764;2022-10-22T19:01:52;1.17;;;1.00;;
14181;SDS011;7171;50.936;6.764;2022-10-22T19:04:20;1.33;;;1.17;;
14181;SDS011;7171;50.936;6.764;2022-10-22T19:06:47;2.15;;;0.95;;
14181;SDS011;7171;50.936;6.764;2022-10-22T19:09:14;1.90;;;1.20;;
14181;SDS011;7171;50.936;6.764;2022-10-22T19:11:41;1.30;;;1.20;;
14181;SDS011;7171;50.936;6.764;2022-10-22T19:14:09;1.38;;;1.17;;
14181;SDS011;7171;50.936;6.764;2022-10-22T19:16:37;1.55;;;1.45;;
14181;SDS011;7171;50.936;6.764;2022-10-22T19:19:05;1.55;;;1.40;;
14181;SDS011;7171;50.936;6.764;2022-10-22T19:21:33;1.95;;;1.55;;
14181;SDS011;7171;50.936;6.764;2022-10-22T19:24:01;3.45;;;1.95;;
14181;SDS011;7171;50.936;6.764;2022-10-22T19:26:28;2.35;;;1.40;;
14181;SDS011;7171;50.936;6.764;2022-10-22T19:28:56;1.50;;;1.40;;
14181;SDS011;7171;50.936;6.764;2022-10-22T19:31:24;3.63;;;1.42;;
14181;SDS011;7171;50.936;6.764;2022-10-22T19:33:51;1.42;;;1.33;;
14181;SDS011;7171;50.936;6.764;2022-10-22T19:36:19;1.48;;;1.38;;
14181;SDS011;7171;50.936;6.764;2022-10-22T19:38:49;2.08;;;1.40;;